sensor_id;sensor_type;location;lat;lon;timestamp;temperature;humidity
2751;DHT22;1383;48.362;10.908;2023-05-07T00:01:49;15.00;67.20
2751;DHT22;1383;48.362;10.908;2023-05-07T00:04:16;15.10;66.90
2751;DHT22;1383;48.362;10.908;2023-05-07T00:06:43;15.00;66.70
2751;DHT22;1383;48.362;10.908;2023-05-07T00:09:10;14.90;67.60
2751;DHT22;1383;48.362;10.908;2023-05-07T00:11:37;15.00;67.50
2751;DHT22;1383;48.362;10.908;2023-05-07T00:14:04;15.00;66.40
2751;DHT22;1383;48.362;10.908;2023-05-07T00:16:31;15.00;66.50
2751;DHT22;1383;48.362;10.908;2023-05-07T00:18:58;15.00;66.40
2751;DHT22;1383;48.362;10.908;2023-05-07T00:21:25;15.10;66.00
2751;DHT22;1383;48.362;10.908;2023-05-07T00:23:54;15.10;66.10
2751;DHT22;1383;48.362;10.908;2023-05-07T00:26:21;15.20;65.40
2751;DHT22;1383;48.362;10.908;2023-05-07T00:28:48;15.20;65.40
2751;DHT22;1383;48.362;10.908;2023-05-07T00:31:15;15.20;65.10
2751;DHT22;1383;48.362;10.908;2023-05-07T00:33:42;15.20;64.70
2751;DHT22;1383;48.362;10.908;2023-05-07T00:36:08;15.10;64.70
2751;DHT22;1383;48.362;10.908;2023-05-07T00:38:36;15.20;64.80
2751;DHT22;1383;48.362;10.908;2023-05-07T00:41:03;15.20;64.60
2751;DHT22;1383;48.362;10.908;2023-05-07T00:43:29;15.10;64.80
2751;DHT22;1383;48.362;10.908;2023-05-07T00:45:56;15.10;65.50
2751;DHT22;1383;48.362;10.908;2023-05-07T00:48:24;15.10;65.70
2751;DHT22;1383;48.362;10.908;2023-05-07T00:50:51;15.00;65.70
2751;DHT22;1383;48.362;10.908;2023-05-07T00:53:18;15.10;66.20
2751;DHT22;1383;48.362;10.908;2023-05-07T00:55:45;15.10;66.00
2751;DHT22;1383;48.362;10.908;2023-05-07T00:58:12;15.10;66.30
2751;DHT22;1383;48.362;10.908;2023-05-07T01:00:39;15.10;66.70
2751;DHT22;1383;48.362;10.908;2023-05-07T01:03:07;15.10;66.80
2751;DHT22;1383;48.362;10.908;2023-05-07T01:05:34;15.10;67.50
2751;DHT22;1383;48.362;10.908;2023-05-07T01:08:02;15.10;67.50
2751;DHT22;1383;48.362;10.908;2023-05-07T01:10:30;15.00;67.70
2751;DHT22;1383;48.362;10.908;2023-05-07T01:12:58;14.90;68.50
2751;DHT22;1383;48.362;10.908;2023-05-07T01:15:26;14.80;69.60
2751;DHT22;1383;48.362;10.908;2023-05-07T01:17:53;14.80;70.10
2751;DHT22;1383;48.362;10.908;2023-05-07T01:20:20;14.70;70.40
2751;DHT22;1383;48.362;10.908;2023-05-07T01:22:47;14.70;70.00
2751;DHT22;1383;48.362;10.908;2023-05-07T01:25:15;14.70;70.60
2751;DHT22;1383;48.362;10.908;2023-05-07T01:27:43;14.60;71.20
2751;DHT22;1383;48.362;10.908;2023-05-07T01:30:10;14.60;71.20
2751;DHT22;1383;48.362;10.908;2023-05-07T01:32:38;14.60;70.60
2751;DHT22;1383;48.362;10.908;2023-05-07T01:35:10;14.60;71.50
2751;DHT22;1383;48.362;10.908;2023-05-07T01:37:38;14.50;71.60
2751;DHT22;1383;48.362;10.908;2023-05-07T01:40:06;14.50;72.10
2751;DHT22;1383;48.362;10.908;2023-05-07T01:42:34;14.50;72.50
2751;DHT22;1383;48.362;10.908;2023-05-07T01:45:00;14.50;71.90
2751;DHT22;1383;48.362;10.908;2023-05-07T01:47:27;14.50;72.00
2751;DHT22;1383;48.362;10.908;2023-05-07T01:49:56;14.50;72.30
2751;DHT22;1383;48.362;10.908;2023-05-07T01:52:23;14.50;72.00
2751;DHT22;1383;48.362;10.908;2023-05-07T01:54:51;14.50;71.90
2751;DHT22;1383;48.362;10.908;2023-05-07T01:57:18;14.40;72.00
2751;DHT22;1383;48.362;10.908;2023-05-07T01:59:45;14.30;71.90
2751;DHT22;1383;48.362;10.908;2023-05-07T02:02:11;14.30;73.00
2751;DHT22;1383;48.362;10.908;2023-05-07T02:04:38;14.30;73.00
2751;DHT22;1383;48.362;10.908;2023-05-07T02:07:05;14.30;73.10
2751;DHT22;1383;48.362;10.908;2023-05-07T02:09:32;14.30;73.50
2751;DHT22;1383;48.362;10.908;2023-05-07T02:11:59;14.30;73.30
2751;DHT22;1383;48.362;10.908;2023-05-07T02:14:26;14.40;72.70
2751;DHT22;1383;48.362;10.908;2023-05-07T02:16:53;14.40;72.30
2751;DHT22;1383;48.362;10.908;2023-05-07T02:19:19;14.40;71.70
2751;DHT22;1383;48.362;10.908;2023-05-07T02:21:47;14.30;72.20
2751;DHT22;1383;48.362;10.908;2023-05-07T02:24:14;14.30;72.20
2751;DHT22;1383;48.362;10.908;2023-05-07T02:26:41;14.30;72.60
2751;DHT22;1383;48.362;10.908;2023-05-07T02:29:08;14.30;72.80
2751;DHT22;1383;48.362;10.908;2023-05-07T02:31:35;14.30;72.20
2751;DHT22;1383;48.362;10.908;2023-05-07T02:34:01;14.30;72.10
2751;DHT22;1383;48.362;10.908;2023-05-07T02:36:28;14.30;72.00
2751;DHT22;1383;48.362;10.908;2023-05-07T02:38:55;14.40;72.70
2751;DHT22;1383;48.362;10.908;2023-05-07T02:41:22;14.40;71.50
2751;DHT22;1383;48.362;10.908;2023-05-07T02:43:49;14.40;71.40
2751;DHT22;1383;48.362;10.908;2023-05-07T02:46:16;14.40;71.40
2751;DHT22;1383;48.362;10.908;2023-05-07T02:48:42;14.40;71.60
2751;DHT22;1383;48.362;10.908;2023-05-07T02:51:09;14.40;71.80
2751;DHT22;1383;48.362;10.908;2023-05-07T02:53:36;14.50;72.00
2751;DHT22;1383;48.362;10.908;2023-05-07T02:56:03;14.50;71.50
2751;DHT22;1383;48.362;10.908;2023-05-07T02:58:30;14.50;70.90
2751;DHT22;1383;48.362;10.908;2023-05-07T03:00:57;14.40;70.60
2751;DHT22;1383;48.362;10.908;2023-05-07T03:03:24;14.40;70.70
2751;DHT22;1383;48.362;10.908;2023-05-07T03:05:50;14.40;70.40
2751;DHT22;1383;48.362;10.908;2023-05-07T03:08:17;14.50;69.60
2751;DHT22;1383;48.362;10.908;2023-05-07T03:10:44;14.50;69.10
2751;DHT22;1383;48.362;10.908;2023-05-07T03:13:11;14.50;69.00
2751;DHT22;1383;48.362;10.908;2023-05-07T03:15:38;14.50;68.90
2751;DHT22;1383;48.362;10.908;2023-05-07T03:18:05;14.40;68.90
2751;DHT22;1383;48.362;10.908;2023-05-07T03:20:32;14.30;68.60
2751;DHT22;1383;48.362;10.908;2023-05-07T03:22:59;14.30;68.30
2751;DHT22;1383;48.362;10.908;2023-05-07T03:25:26;14.30;67.60
2751;DHT22;1383;48.362;10.908;2023-05-07T03:27:52;14.20;67.30
2751;DHT22;1383;48.362;10.908;2023-05-07T03:30:19;14.20;67.40
2751;DHT22;1383;48.362;10.908;2023-05-07T03:32:46;14.20;67.30
2751;DHT22;1383;48.362;10.908;2023-05-07T03:35:13;14.30;66.70
2751;DHT22;1383;48.362;10.908;2023-05-07T03:37:40;14.20;67.20
2751;DHT22;1383;48.362;10.908;2023-05-07T03:40:07;14.10;66.90
2751;DHT22;1383;48.362;10.908;2023-05-07T03:42:37;14.10;67.80
2751;DHT22;1383;48.362;10.908;2023-05-07T03:45:04;14.10;68.80
2751;DHT22;1383;48.362;10.908;2023-05-07T03:47:31;13.90;70.10
2751;DHT22;1383;48.362;10.908;2023-05-07T03:49:58;13.80;72.00
2751;DHT22;1383;48.362;10.908;2023-05-07T03:52:26;13.90;72.30
2751;DHT22;1383;48.362;10.908;2023-05-07T03:54:53;13.80;72.50
2751;DHT22;1383;48.362;10.908;2023-05-07T03:57:20;13.80;72.80
2751;DHT22;1383;48.362;10.908;2023-05-07T03:59:47;13.70;72.30
2751;DHT22;1383;48.362;10.908;2023-05-07T04:02:14;13.70;72.90
2751;DHT22;1383;48.362;10.908;2023-05-07T04:04:40;13.80;72.60
2751;DHT22;1383;48.362;10.908;2023-05-07T04:07:07;13.80;72.50
2751;DHT22;1383;48.362;10.908;2023-05-07T04:09:34;13.80;72.10
2751;DHT22;1383;48.362;10.908;2023-05-07T04:12:01;13.70;72.90
2751;DHT22;1383;48.362;10.908;2023-05-07T04:14:28;13.60;72.80
2751;DHT22;1383;48.362;10.908;2023-05-07T04:16:55;13.60;73.30
2751;DHT22;1383;48.362;10.908;2023-05-07T04:19:21;13.50;73.00
2751;DHT22;1383;48.362;10.908;2023-05-07T04:21:48;13.30;74.50
2751;DHT22;1383;48.362;10.908;2023-05-07T04:24:16;13.30;75.70
2751;DHT22;1383;48.362;10.908;2023-05-07T04:26:42;13.30;76.10
2751;DHT22;1383;48.362;10.908;2023-05-07T04:29:09;13.30;76.00
2751;DHT22;1383;48.362;10.908;2023-05-07T04:31:36;13.20;76.50
2751;DHT22;1383;48.362;10.908;2023-05-07T04:34:03;13.20;77.20
2751;DHT22;1383;48.362;10.908;2023-05-07T04:36:30;13.20;77.20
2751;DHT22;1383;48.362;10.908;2023-05-07T04:38:57;13.20;77.10
2751;DHT22;1383;48.362;10.908;2023-05-07T04:41:24;13.20;77.80
2751;DHT22;1383;48.362;10.908;2023-05-07T04:43:51;13.30;77.50
2751;DHT22;1383;48.362;10.908;2023-05-07T04:46:18;13.40;76.80
2751;DHT22;1383;48.362;10.908;2023-05-07T04:48:45;13.40;76.10
2751;DHT22;1383;48.362;10.908;2023-05-07T04:51:13;13.50;75.30
2751;DHT22;1383;48.362;10.908;2023-05-07T04:53:39;13.50;75.00
2751;DHT22;1383;48.362;10.908;2023-05-07T04:56:07;13.60;75.20
2751;DHT22;1383;48.362;10.908;2023-05-07T04:58:33;13.70;73.80
2751;DHT22;1383;48.362;10.908;2023-05-07T05:01:00;13.70;72.50
2751;DHT22;1383;48.362;10.908;2023-05-07T05:03:28;13.80;71.40
2751;DHT22;1383;48.362;10.908;2023-05-07T05:05:55;13.80;70.60
2751;DHT22;1383;48.362;10.908;2023-05-07T05:08:22;13.90;70.90
2751;DHT22;1383;48.362;10.908;2023-05-07T05:10:48;14.00;70.30
2751;DHT22;1383;48.362;10.908;2023-05-07T05:13:16;14.10;69.50
2751;DHT22;1383;48.362;10.908;2023-05-07T05:15:43;14.10;68.40
2751;DHT22;1383;48.362;10.908;2023-05-07T05:18:10;14.10;68.10
2751;DHT22;1383;48.362;10.908;2023-05-07T05:20:37;14.10;67.60
2751;DHT22;1383;48.362;10.908;2023-05-07T05:23:03;14.20;67.30
2751;DHT22;1383;48.362;10.908;2023-05-07T05:25:30;14.30;66.40
2751;DHT22;1383;48.362;10.908;2023-05-07T05:27:57;14.50;65.90
2751;DHT22;1383;48.362;10.908;2023-05-07T05:30:24;14.50;65.00
2751;DHT22;1383;48.362;10.908;2023-05-07T05:32:51;14.60;64.60
2751;DHT22;1383;48.362;10.908;2023-05-07T05:35:18;14.80;64.40
2751;DHT22;1383;48.362;10.908;2023-05-07T05:37:45;15.00;63.30
2751;DHT22;1383;48.362;10.908;2023-05-07T05:40:12;15.30;62.50
2751;DHT22;1383;48.362;10.908;2023-05-07T05:42:39;15.40;60.90
2751;DHT22;1383;48.362;10.908;2023-05-07T05:45:06;15.70;60.00
2751;DHT22;1383;48.362;10.908;2023-05-07T05:47:33;16.10;58.20
2751;DHT22;1383;48.362;10.908;2023-05-07T05:50:00;16.60;57.00
2751;DHT22;1383;48.362;10.908;2023-05-07T05:52:27;17.10;55.00
2751;DHT22;1383;48.362;10.908;2023-05-07T05:54:53;17.30;53.20
2751;DHT22;1383;48.362;10.908;2023-05-07T05:57:20;17.70;51.10
2751;DHT22;1383;48.362;10.908;2023-05-07T05:59:47;18.00;49.90
2751;DHT22;1383;48.362;10.908;2023-05-07T06:02:14;18.10;49.00
2751;DHT22;1383;48.362;10.908;2023-05-07T06:04:41;18.20;48.50
2751;DHT22;1383;48.362;10.908;2023-05-07T06:07:09;18.40;47.90
2751;DHT22;1383;48.362;10.908;2023-05-07T06:09:36;18.40;46.80
2751;DHT22;1383;48.362;10.908;2023-05-07T06:12:03;18.60;46.60
2751;DHT22;1383;48.362;10.908;2023-05-07T06:14:30;19.00;45.10
2751;DHT22;1383;48.362;10.908;2023-05-07T06:16:57;18.70;44.40
2751;DHT22;1383;48.362;10.908;2023-05-07T06:19:24;18.80;45.30
2751;DHT22;1383;48.362;10.908;2023-05-07T06:21:53;19.20;44.30
2751;DHT22;1383;48.362;10.908;2023-05-07T06:24:20;19.60;43.30
2751;DHT22;1383;48.362;10.908;2023-05-07T06:26:46;20.10;42.30
2751;DHT22;1383;48.362;10.908;2023-05-07T06:29:13;20.20;41.70
2751;DHT22;1383;48.362;10.908;2023-05-07T06:31:40;20.20;41.00
2751;DHT22;1383;48.362;10.908;2023-05-07T06:34:08;20.60;40.50
2751;DHT22;1383;48.362;10.908;2023-05-07T06:36:34;20.50;39.50
2751;DHT22;1383;48.362;10.908;2023-05-07T06:39:02;20.30;40.30
2751;DHT22;1383;48.362;10.908;2023-05-07T06:41:28;20.20;40.60
2751;DHT22;1383;48.362;10.908;2023-05-07T06:43:55;20.40;41.00
2751;DHT22;1383;48.362;10.908;2023-05-07T06:46:22;20.70;40.90
2751;DHT22;1383;48.362;10.908;2023-05-07T06:48:49;21.10;39.30
2751;DHT22;1383;48.362;10.908;2023-05-07T06:51:16;21.30;39.40
2751;DHT22;1383;48.362;10.908;2023-05-07T06:53:42;21.80;38.60
2751;DHT22;1383;48.362;10.908;2023-05-07T06:56:09;22.20;37.80
2751;DHT22;1383;48.362;10.908;2023-05-07T06:58:37;22.60;36.50
2751;DHT22;1383;48.362;10.908;2023-05-07T07:01:04;22.60;36.50
2751;DHT22;1383;48.362;10.908;2023-05-07T07:03:30;22.60;35.90
2751;DHT22;1383;48.362;10.908;2023-05-07T07:05:57;22.70;35.80
2751;DHT22;1383;48.362;10.908;2023-05-07T07:08:24;22.60;36.00
2751;DHT22;1383;48.362;10.908;2023-05-07T07:10:51;22.80;35.60
2751;DHT22;1383;48.362;10.908;2023-05-07T07:13:17;22.00;36.80
2751;DHT22;1383;48.362;10.908;2023-05-07T07:15:45;21.90;36.80
2751;DHT22;1383;48.362;10.908;2023-05-07T07:18:12;21.90;38.40
2751;DHT22;1383;48.362;10.908;2023-05-07T07:20:39;22.50;38.20
2751;DHT22;1383;48.362;10.908;2023-05-07T07:23:06;22.90;36.50
2751;DHT22;1383;48.362;10.908;2023-05-07T07:25:33;23.30;34.90
2751;DHT22;1383;48.362;10.908;2023-05-07T07:28:00;23.50;36.10
2751;DHT22;1383;48.362;10.908;2023-05-07T07:30:27;24.00;34.70
2751;DHT22;1383;48.362;10.908;2023-05-07T07:32:54;24.00;34.10
2751;DHT22;1383;48.362;10.908;2023-05-07T07:35:24;24.00;33.40
2751;DHT22;1383;48.362;10.908;2023-05-07T07:37:51;24.10;34.20
2751;DHT22;1383;48.362;10.908;2023-05-07T07:40:18;24.30;33.30
2751;DHT22;1383;48.362;10.908;2023-05-07T07:42:45;24.10;33.50
2751;DHT22;1383;48.362;10.908;2023-05-07T07:45:12;23.70;34.10
2751;DHT22;1383;48.362;10.908;2023-05-07T07:47:39;23.90;34.10
2751;DHT22;1383;48.362;10.908;2023-05-07T07:50:07;24.00;34.30
2751;DHT22;1383;48.362;10.908;2023-05-07T07:52:34;24.10;33.70
2751;DHT22;1383;48.362;10.908;2023-05-07T07:55:01;24.20;33.30
2751;DHT22;1383;48.362;10.908;2023-05-07T07:57:28;23.70;34.50
2751;DHT22;1383;48.362;10.908;2023-05-07T07:59:55;23.70;35.30
2751;DHT22;1383;48.362;10.908;2023-05-07T08:02:22;23.90;34.50
2751;DHT22;1383;48.362;10.908;2023-05-07T08:04:49;23.80;34.90
2751;DHT22;1383;48.362;10.908;2023-05-07T08:07:16;24.00;35.70
2751;DHT22;1383;48.362;10.908;2023-05-07T08:09:45;24.20;34.60
2751;DHT22;1383;48.362;10.908;2023-05-07T08:12:12;24.00;34.60
2751;DHT22;1383;48.362;10.908;2023-05-07T08:14:39;24.50;35.00
2751;DHT22;1383;48.362;10.908;2023-05-07T08:17:06;24.50;33.10
2751;DHT22;1383;48.362;10.908;2023-05-07T08:19:33;24.50;32.70
2751;DHT22;1383;48.362;10.908;2023-05-07T08:21:59;24.30;33.40
2751;DHT22;1383;48.362;10.908;2023-05-07T08:24:26;24.80;33.30
2751;DHT22;1383;48.362;10.908;2023-05-07T08:26:53;24.40;32.00
2751;DHT22;1383;48.362;10.908;2023-05-07T08:29:20;24.20;31.90
2751;DHT22;1383;48.362;10.908;2023-05-07T08:31:47;24.30;32.50
2751;DHT22;1383;48.362;10.908;2023-05-07T08:34:21;23.90;32.10
2751;DHT22;1383;48.362;10.908;2023-05-07T08:36:49;23.80;32.80
2751;DHT22;1383;48.362;10.908;2023-05-07T08:39:16;23.90;32.50
2751;DHT22;1383;48.362;10.908;2023-05-07T08:41:44;23.90;32.70
2751;DHT22;1383;48.362;10.908;2023-05-07T08:44:13;24.00;32.40
2751;DHT22;1383;48.362;10.908;2023-05-07T08:46:44;23.50;32.20
2751;DHT22;1383;48.362;10.908;2023-05-07T08:49:13;23.70;31.50
2751;DHT22;1383;48.362;10.908;2023-05-07T08:51:42;23.30;29.80
2751;DHT22;1383;48.362;10.908;2023-05-07T08:54:09;23.00;30.60
2751;DHT22;1383;48.362;10.908;2023-05-07T08:56:37;23.30;31.50
2751;DHT22;1383;48.362;10.908;2023-05-07T08:59:04;23.60;30.70
2751;DHT22;1383;48.362;10.908;2023-05-07T09:01:31;23.60;32.10
2751;DHT22;1383;48.362;10.908;2023-05-07T09:03:58;23.20;33.40
2751;DHT22;1383;48.362;10.908;2023-05-07T09:06:25;23.70;34.10
2751;DHT22;1383;48.362;10.908;2023-05-07T09:08:54;24.00;33.00
2751;DHT22;1383;48.362;10.908;2023-05-07T09:11:23;23.80;34.20
2751;DHT22;1383;48.362;10.908;2023-05-07T09:13:55;24.30;32.80
2751;DHT22;1383;48.362;10.908;2023-05-07T09:16:23;24.10;32.60
2751;DHT22;1383;48.362;10.908;2023-05-07T09:18:54;23.70;33.10
2751;DHT22;1383;48.362;10.908;2023-05-07T09:21:21;23.70;32.60
2751;DHT22;1383;48.362;10.908;2023-05-07T09:23:54;23.70;33.50
2751;DHT22;1383;48.362;10.908;2023-05-07T09:26:22;23.70;33.20
2751;DHT22;1383;48.362;10.908;2023-05-07T09:28:48;24.10;32.10
2751;DHT22;1383;48.362;10.908;2023-05-07T09:31:16;24.10;31.20
2751;DHT22;1383;48.362;10.908;2023-05-07T09:33:46;24.20;30.40
2751;DHT22;1383;48.362;10.908;2023-05-07T09:36:13;24.30;30.00
2751;DHT22;1383;48.362;10.908;2023-05-07T09:38:41;24.20;29.60
2751;DHT22;1383;48.362;10.908;2023-05-07T09:41:12;24.20;29.10
2751;DHT22;1383;48.362;10.908;2023-05-07T09:43:40;23.90;28.90
2751;DHT22;1383;48.362;10.908;2023-05-07T09:46:14;24.10;30.00
2751;DHT22;1383;48.362;10.908;2023-05-07T09:48:43;24.10;27.70
2751;DHT22;1383;48.362;10.908;2023-05-07T09:51:22;24.20;27.80
2751;DHT22;1383;48.362;10.908;2023-05-07T09:53:52;24.30;27.40
2751;DHT22;1383;48.362;10.908;2023-05-07T09:56:19;24.30;27.10
2751;DHT22;1383;48.362;10.908;2023-05-07T09:58:48;24.10;25.40
2751;DHT22;1383;48.362;10.908;2023-05-07T10:01:17;24.00;26.50
2751;DHT22;1383;48.362;10.908;2023-05-07T10:03:46;24.10;26.60
2751;DHT22;1383;48.362;10.908;2023-05-07T10:06:14;24.00;25.90
2751;DHT22;1383;48.362;10.908;2023-05-07T10:08:42;23.80;25.70
2751;DHT22;1383;48.362;10.908;2023-05-07T10:11:10;24.10;25.40
2751;DHT22;1383;48.362;10.908;2023-05-07T10:13:37;24.10;24.70
2751;DHT22;1383;48.362;10.908;2023-05-07T10:16:05;24.00;24.40
2751;DHT22;1383;48.362;10.908;2023-05-07T10:18:32;23.90;23.40
2751;DHT22;1383;48.362;10.908;2023-05-07T10:21:21;24.40;23.90
2751;DHT22;1383;48.362;10.908;2023-05-07T10:24:12;24.70;23.70
2751;DHT22;1383;48.362;10.908;2023-05-07T10:26:47;24.80;24.30
2751;DHT22;1383;48.362;10.908;2023-05-07T10:29:33;24.90;23.00
2751;DHT22;1383;48.362;10.908;2023-05-07T10:32:25;24.70;22.20
2751;DHT22;1383;48.362;10.908;2023-05-07T10:35:00;24.50;23.10
2751;DHT22;1383;48.362;10.908;2023-05-07T10:37:27;24.70;22.60
2751;DHT22;1383;48.362;10.908;2023-05-07T10:39:55;24.90;22.30
2751;DHT22;1383;48.362;10.908;2023-05-07T10:42:23;25.10;21.60
2751;DHT22;1383;48.362;10.908;2023-05-07T10:44:50;24.90;21.50
2751;DHT22;1383;48.362;10.908;2023-05-07T10:47:17;24.30;20.90
2751;DHT22;1383;48.362;10.908;2023-05-07T10:52:19;24.70;21.90
2751;DHT22;1383;48.362;10.908;2023-05-07T10:54:47;24.40;21.80
2751;DHT22;1383;48.362;10.908;2023-05-07T10:57:32;24.10;22.60
2751;DHT22;1383;48.362;10.908;2023-05-07T11:00:00;23.80;23.20
2751;DHT22;1383;48.362;10.908;2023-05-07T11:05:30;23.60;23.30
2751;DHT22;1383;48.362;10.908;2023-05-07T11:08:03;23.80;23.00
2751;DHT22;1383;48.362;10.908;2023-05-07T11:10:52;23.60;22.70
2751;DHT22;1383;48.362;10.908;2023-05-07T11:13:55;23.70;22.80
2751;DHT22;1383;48.362;10.908;2023-05-07T11:16:23;24.00;23.50
2751;DHT22;1383;48.362;10.908;2023-05-07T11:18:53;23.80;23.50
2751;DHT22;1383;48.362;10.908;2023-05-07T11:21:40;23.70;23.90
2751;DHT22;1383;48.362;10.908;2023-05-07T11:24:08;23.90;23.50
2751;DHT22;1383;48.362;10.908;2023-05-07T11:26:49;23.70;23.40
2751;DHT22;1383;48.362;10.908;2023-05-07T11:29:18;23.50;24.30
2751;DHT22;1383;48.362;10.908;2023-05-07T11:31:52;23.30;24.80
2751;DHT22;1383;48.362;10.908;2023-05-07T11:34:24;23.40;24.40
2751;DHT22;1383;48.362;10.908;2023-05-07T11:36:52;23.40;24.30
2751;DHT22;1383;48.362;10.908;2023-05-07T11:39:27;23.30;24.30
2751;DHT22;1383;48.362;10.908;2023-05-07T11:41:54;23.30;25.50
2751;DHT22;1383;48.362;10.908;2023-05-07T11:44:21;23.40;25.50
2751;DHT22;1383;48.362;10.908;2023-05-07T11:46:48;23.10;24.80
2751;DHT22;1383;48.362;10.908;2023-05-07T11:49:15;23.10;25.70
2751;DHT22;1383;48.362;10.908;2023-05-07T11:51:42;22.80;25.80
2751;DHT22;1383;48.362;10.908;2023-05-07T11:54:09;22.70;25.80
2751;DHT22;1383;48.362;10.908;2023-05-07T11:56:38;22.60;25.90
2751;DHT22;1383;48.362;10.908;2023-05-07T11:59:05;22.60;26.70
2751;DHT22;1383;48.362;10.908;2023-05-07T12:01:35;22.70;26.30
2751;DHT22;1383;48.362;10.908;2023-05-07T12:04:03;22.70;26.10
2751;DHT22;1383;48.362;10.908;2023-05-07T12:06:31;22.90;26.60
2751;DHT22;1383;48.362;10.908;2023-05-07T12:08:58;22.90;25.90
2751;DHT22;1383;48.362;10.908;2023-05-07T12:11:25;22.90;26.30
2751;DHT22;1383;48.362;10.908;2023-05-07T12:13:54;23.00;26.90
2751;DHT22;1383;48.362;10.908;2023-05-07T12:16:25;22.90;25.50
2751;DHT22;1383;48.362;10.908;2023-05-07T12:18:53;23.10;25.70
2751;DHT22;1383;48.362;10.908;2023-05-07T12:21:22;23.20;25.40
2751;DHT22;1383;48.362;10.908;2023-05-07T12:23:49;23.20;25.70
2751;DHT22;1383;48.362;10.908;2023-05-07T12:26:18;23.10;25.50
2751;DHT22;1383;48.362;10.908;2023-05-07T12:28:46;23.00;25.80
2751;DHT22;1383;48.362;10.908;2023-05-07T12:31:14;22.90;26.20
2751;DHT22;1383;48.362;10.908;2023-05-07T12:33:41;22.80;26.10
2751;DHT22;1383;48.362;10.908;2023-05-07T12:36:11;22.90;26.30
2751;DHT22;1383;48.362;10.908;2023-05-07T12:38:39;22.90;26.50
2751;DHT22;1383;48.362;10.908;2023-05-07T12:41:09;22.90;26.30
2751;DHT22;1383;48.362;10.908;2023-05-07T12:43:36;23.00;26.80
2751;DHT22;1383;48.362;10.908;2023-05-07T12:46:05;22.80;27.00
2751;DHT22;1383;48.362;10.908;2023-05-07T12:48:36;22.80;27.10
2751;DHT22;1383;48.362;10.908;2023-05-07T12:51:03;22.90;28.10
2751;DHT22;1383;48.362;10.908;2023-05-07T12:53:31;22.80;27.60
2751;DHT22;1383;48.362;10.908;2023-05-07T12:55:59;23.10;27.70
2751;DHT22;1383;48.362;10.908;2023-05-07T13:00:54;23.20;27.20
2751;DHT22;1383;48.362;10.908;2023-05-07T13:03:31;23.20;27.30
2751;DHT22;1383;48.362;10.908;2023-05-07T13:06:01;23.30;26.60
2751;DHT22;1383;48.362;10.908;2023-05-07T13:08:37;23.20;27.40
2751;DHT22;1383;48.362;10.908;2023-05-07T13:11:07;22.90;28.30
2751;DHT22;1383;48.362;10.908;2023-05-07T13:13:36;22.90;29.40
2751;DHT22;1383;48.362;10.908;2023-05-07T13:16:04;23.00;29.80
2751;DHT22;1383;48.362;10.908;2023-05-07T13:18:33;22.90;29.10
2751;DHT22;1383;48.362;10.908;2023-05-07T13:21:01;23.00;29.50
2751;DHT22;1383;48.362;10.908;2023-05-07T13:23:28;23.10;28.50
2751;DHT22;1383;48.362;10.908;2023-05-07T13:25:55;23.20;28.80
2751;DHT22;1383;48.362;10.908;2023-05-07T13:28:25;23.20;29.10
2751;DHT22;1383;48.362;10.908;2023-05-07T13:30:53;23.10;29.10
2751;DHT22;1383;48.362;10.908;2023-05-07T13:33:21;23.30;28.80
2751;DHT22;1383;48.362;10.908;2023-05-07T13:35:48;23.20;28.00
2751;DHT22;1383;48.362;10.908;2023-05-07T13:38:15;23.10;28.10
2751;DHT22;1383;48.362;10.908;2023-05-07T13:40:42;23.10;28.10
2751;DHT22;1383;48.362;10.908;2023-05-07T13:43:09;23.20;27.80
2751;DHT22;1383;48.362;10.908;2023-05-07T13:45:37;23.20;28.70
2751;DHT22;1383;48.362;10.908;2023-05-07T13:48:04;23.20;28.60
2751;DHT22;1383;48.362;10.908;2023-05-07T13:50:31;23.20;28.70
2751;DHT22;1383;48.362;10.908;2023-05-07T13:52:58;22.90;28.20
2751;DHT22;1383;48.362;10.908;2023-05-07T13:55:25;22.90;28.60
2751;DHT22;1383;48.362;10.908;2023-05-07T13:58:00;23.10;28.60
2751;DHT22;1383;48.362;10.908;2023-05-07T14:00:28;23.20;27.60
2751;DHT22;1383;48.362;10.908;2023-05-07T14:02:56;23.20;28.30
2751;DHT22;1383;48.362;10.908;2023-05-07T14:05:23;23.30;28.90
2751;DHT22;1383;48.362;10.908;2023-05-07T14:07:51;23.20;28.00
2751;DHT22;1383;48.362;10.908;2023-05-07T14:10:19;23.50;27.80
2751;DHT22;1383;48.362;10.908;2023-05-07T14:12:46;23.40;28.10
2751;DHT22;1383;48.362;10.908;2023-05-07T14:15:13;23.50;27.50
2751;DHT22;1383;48.362;10.908;2023-05-07T14:17:40;23.40;27.40
2751;DHT22;1383;48.362;10.908;2023-05-07T14:20:08;23.10;28.00
2751;DHT22;1383;48.362;10.908;2023-05-07T14:22:35;23.10;28.00
2751;DHT22;1383;48.362;10.908;2023-05-07T14:25:02;23.30;27.80
2751;DHT22;1383;48.362;10.908;2023-05-07T14:27:33;23.40;28.30
2751;DHT22;1383;48.362;10.908;2023-05-07T14:30:00;23.30;27.50
2751;DHT22;1383;48.362;10.908;2023-05-07T14:32:27;23.20;28.20
2751;DHT22;1383;48.362;10.908;2023-05-07T14:34:53;23.20;28.60
2751;DHT22;1383;48.362;10.908;2023-05-07T14:37:20;23.20;28.40
2751;DHT22;1383;48.362;10.908;2023-05-07T14:39:47;23.20;28.10
2751;DHT22;1383;48.362;10.908;2023-05-07T14:42:16;23.20;28.50
2751;DHT22;1383;48.362;10.908;2023-05-07T14:44:43;23.10;28.50
2751;DHT22;1383;48.362;10.908;2023-05-07T14:47:12;23.10;28.20
2751;DHT22;1383;48.362;10.908;2023-05-07T14:49:39;23.20;28.30
2751;DHT22;1383;48.362;10.908;2023-05-07T14:52:07;23.10;27.50
2751;DHT22;1383;48.362;10.908;2023-05-07T14:54:37;23.10;27.80
2751;DHT22;1383;48.362;10.908;2023-05-07T14:57:06;23.10;28.30
2751;DHT22;1383;48.362;10.908;2023-05-07T14:59:33;23.10;28.00
2751;DHT22;1383;48.362;10.908;2023-05-07T15:02:00;23.20;28.00
2751;DHT22;1383;48.362;10.908;2023-05-07T15:04:31;23.20;27.20
2751;DHT22;1383;48.362;10.908;2023-05-07T15:06:58;23.00;27.50
2751;DHT22;1383;48.362;10.908;2023-05-07T15:09:25;22.80;28.40
2751;DHT22;1383;48.362;10.908;2023-05-07T15:11:52;22.70;28.30
2751;DHT22;1383;48.362;10.908;2023-05-07T15:14:19;22.80;28.00
2751;DHT22;1383;48.362;10.908;2023-05-07T15:16:48;22.80;27.90
2751;DHT22;1383;48.362;10.908;2023-05-07T15:19:15;22.80;28.20
2751;DHT22;1383;48.362;10.908;2023-05-07T15:21:43;22.50;28.00
2751;DHT22;1383;48.362;10.908;2023-05-07T15:24:10;22.50;28.50
2751;DHT22;1383;48.362;10.908;2023-05-07T15:26:37;22.50;27.70
2751;DHT22;1383;48.362;10.908;2023-05-07T15:29:04;22.50;27.50
2751;DHT22;1383;48.362;10.908;2023-05-07T15:31:37;22.70;28.10
2751;DHT22;1383;48.362;10.908;2023-05-07T15:34:06;22.70;27.90
2751;DHT22;1383;48.362;10.908;2023-05-07T15:36:33;22.80;27.90
2751;DHT22;1383;48.362;10.908;2023-05-07T15:39:00;22.90;28.00
2751;DHT22;1383;48.362;10.908;2023-05-07T15:41:29;22.80;28.50
2751;DHT22;1383;48.362;10.908;2023-05-07T15:43:56;22.80;28.60
2751;DHT22;1383;48.362;10.908;2023-05-07T15:46:24;22.70;27.80
2751;DHT22;1383;48.362;10.908;2023-05-07T15:48:54;22.70;28.10
2751;DHT22;1383;48.362;10.908;2023-05-07T15:51:22;22.60;28.30
2751;DHT22;1383;48.362;10.908;2023-05-07T15:53:49;22.40;28.30
2751;DHT22;1383;48.362;10.908;2023-05-07T15:56:17;22.40;28.50
2751;DHT22;1383;48.362;10.908;2023-05-07T15:58:44;22.40;28.80